createdAt,value
2017-10-26T00:01:58.644Z,12.80
2017-10-26T00:04:25.919Z,12.80
2017-10-26T00:06:53.106Z,12.70
2017-10-26T00:09:19.649Z,12.70
2017-10-26T00:11:46.812Z,12.70
2017-10-26T00:14:14.010Z,12.70
2017-10-26T00:16:40.786Z,12.70
2017-10-26T00:19:07.316Z,12.70
2017-10-26T00:21:33.739Z,12.70
2017-10-26T00:24:00.170Z,12.70
2017-10-26T00:26:26.686Z,12.60
2017-10-26T00:28:53.241Z,12.70
2017-10-26T00:31:20.439Z,12.70
2017-10-26T00:33:46.972Z,12.60
2017-10-26T00:36:13.403Z,12.60
2017-10-26T00:38:39.831Z,12.60
2017-10-26T00:41:06.263Z,12.60
2017-10-26T00:43:32.694Z,12.60
2017-10-26T00:45:59.883Z,12.60
2017-10-26T00:48:26.426Z,12.60
2017-10-26T00:50:53.700Z,12.60
2017-10-26T00:53:20.262Z,12.60
2017-10-26T00:55:46.696Z,12.60
2017-10-26T00:58:13.941Z,12.70
2017-10-26T01:00:40.548Z,12.60
2017-10-26T01:03:07.810Z,12.70
2017-10-26T01:05:35.098Z,12.70
2017-10-26T01:08:02.372Z,12.80
2017-10-26T01:10:29.668Z,12.80
2017-10-26T01:12:56.210Z,12.80
2017-10-26T01:15:22.733Z,12.80
2017-10-26T01:17:49.320Z,12.80
2017-10-26T01:20:16.697Z,12.90
2017-10-26T01:22:43.974Z,12.80
2017-10-26T01:25:10.639Z,12.80
2017-10-26T01:27:37.193Z,12.90
2017-10-26T01:30:03.749Z,12.80
2017-10-26T01:32:31.025Z,12.90
2017-10-26T01:34:58.291Z,12.80
2017-10-26T01:37:25.572Z,12.80
2017-10-26T01:39:52.830Z,12.80
2017-10-26T01:42:19.326Z,12.80
2017-10-26T01:44:45.810Z,12.80
2017-10-26T01:47:12.338Z,12.70
2017-10-26T01:49:38.876Z,12.70
2017-10-26T01:52:06.688Z,12.60
2017-10-26T01:54:33.340Z,12.60
2017-10-26T01:56:59.916Z,12.60
2017-10-26T01:59:26.472Z,12.60
2017-10-26T02:01:53.043Z,12.60
2017-10-26T02:04:19.584Z,12.50
2017-10-26T02:06:46.116Z,12.50
2017-10-26T02:09:12.657Z,12.50
2017-10-26T02:11:39.970Z,12.50
2017-10-26T02:14:06.515Z,12.50
2017-10-26T02:16:33.066Z,12.50
2017-10-26T02:18:59.731Z,12.50
2017-10-26T02:21:26.285Z,12.40
2017-10-26T02:23:52.805Z,12.40
2017-10-26T02:26:19.401Z,12.40
2017-10-26T02:28:59.052Z,12.40
2017-10-26T02:31:34.507Z,12.40
2017-10-26T02:34:02.089Z,12.40
2017-10-26T02:36:28.647Z,12.40
2017-10-26T02:38:55.308Z,12.40
2017-10-26T02:41:22.584Z,12.30
2017-10-26T02:43:49.140Z,12.30
2017-10-26T02:46:15.634Z,12.30
2017-10-26T02:48:42.083Z,12.20
2017-10-26T02:51:08.530Z,12.20
2017-10-26T02:53:35.078Z,12.10
2017-10-26T02:56:01.497Z,12.10
2017-10-26T02:58:28.900Z,12.00
2017-10-26T03:00:56.182Z,11.90
2017-10-26T03:03:22.830Z,11.90
2017-10-26T03:05:50.315Z,11.90
2017-10-26T03:08:17.551Z,11.90
2017-10-26T03:10:44.149Z,11.90
2017-10-26T03:13:10.705Z,11.90
2017-10-26T03:15:38.090Z,11.90
2017-10-26T03:18:04.651Z,11.90
2017-10-26T03:20:31.199Z,11.90
2017-10-26T03:22:58.582Z,11.80
2017-10-26T03:25:25.201Z,11.80
2017-10-26T03:27:51.695Z,11.80
2017-10-26T03:30:18.788Z,11.70
2017-10-26T03:32:45.218Z,11.70
2017-10-26T03:35:11.633Z,11.70
2017-10-26T03:37:38.132Z,11.60
2017-10-26T03:40:05.405Z,11.60
2017-10-26T03:42:32.725Z,11.60
2017-10-26T03:44:59.182Z,11.60
2017-10-26T03:47:25.650Z,11.60
2017-10-26T03:49:52.130Z,11.70
2017-10-26T03:52:19.424Z,11.70
2017-10-26T03:54:46.700Z,11.70
2017-10-26T03:57:13.890Z,11.70
2017-10-26T03:59:40.432Z,11.70
2017-10-26T04:02:07.704Z,11.70
2017-10-26T04:04:34.160Z,11.70
2017-10-26T04:07:01.538Z,11.60
2017-10-26T04:09:28.732Z,11.60
2017-10-26T04:11:55.268Z,11.60
2017-10-26T04:14:21.927Z,11.50
2017-10-26T04:16:49.125Z,11.50
2017-10-26T04:19:15.571Z,11.50
2017-10-26T04:21:42.122Z,11.40
2017-10-26T04:24:08.651Z,11.40
2017-10-26T04:26:35.932Z,11.40
2017-10-26T04:29:03.142Z,11.50
2017-10-26T04:31:29.785Z,11.50
2017-10-26T04:33:56.309Z,11.50
2017-10-26T04:36:23.000Z,11.50
2017-10-26T04:38:50.376Z,11.60
2017-10-26T04:41:17.673Z,11.60
2017-10-26T04:43:44.157Z,11.60
2017-10-26T04:46:10.768Z,11.60
2017-10-26T04:48:38.044Z,11.60
2017-10-26T04:51:05.118Z,11.60
2017-10-26T04:53:31.672Z,11.60
2017-10-26T04:55:58.893Z,11.70
2017-10-26T04:58:25.402Z,11.70
2017-10-26T05:00:51.870Z,11.70
2017-10-26T05:03:18.418Z,11.70
2017-10-26T05:05:44.982Z,11.80
2017-10-26T05:08:11.474Z,11.80
2017-10-26T05:10:37.944Z,11.80
2017-10-26T05:13:04.389Z,11.80
2017-10-26T05:15:30.842Z,11.80
2017-10-26T05:17:57.335Z,11.90
2017-10-26T05:20:23.761Z,11.90
2017-10-26T05:22:50.221Z,11.90
2017-10-26T05:25:16.729Z,11.90
2017-10-26T05:27:44.003Z,11.90
2017-10-26T05:30:11.277Z,11.90
2017-10-26T05:32:38.438Z,11.90
2017-10-26T05:35:05.787Z,11.90
2017-10-26T05:37:32.295Z,11.90
2017-10-26T05:39:58.840Z,11.90
2017-10-26T05:42:25.344Z,11.80
2017-10-26T05:44:51.860Z,11.80
2017-10-26T05:47:18.418Z,11.80
2017-10-26T05:49:44.971Z,11.70
2017-10-26T05:52:12.240Z,11.70
2017-10-26T05:54:39.523Z,11.60
2017-10-26T05:57:06.079Z,11.60
2017-10-26T05:59:33.353Z,11.60
2017-10-26T06:01:59.914Z,11.60
2017-10-26T06:04:26.471Z,11.70
2017-10-26T06:06:53.763Z,11.80
2017-10-26T06:09:20.201Z,11.70
2017-10-26T06:11:47.491Z,11.80
2017-10-26T06:14:14.035Z,11.80
2017-10-26T06:16:41.219Z,11.90
2017-10-26T06:19:07.673Z,11.90
2017-10-26T06:21:34.189Z,12.00
2017-10-26T06:24:00.665Z,12.00
2017-10-26T06:26:27.867Z,12.10
2017-10-26T06:28:54.283Z,12.10
2017-10-26T06:31:20.743Z,12.10
2017-10-26T06:33:47.218Z,12.20
2017-10-26T06:36:14.494Z,12.30
2017-10-26T06:38:40.958Z,12.30
2017-10-26T06:41:07.615Z,12.40
2017-10-26T06:43:34.168Z,12.40
2017-10-26T06:46:01.692Z,12.50
2017-10-26T06:48:28.207Z,12.50
2017-10-26T06:50:54.765Z,12.50
2017-10-26T06:53:21.340Z,12.60
2017-10-26T06:55:47.852Z,12.60
2017-10-26T06:58:14.339Z,12.60
2017-10-26T07:00:40.807Z,12.60
2017-10-26T07:03:07.351Z,12.60
2017-10-26T07:05:34.586Z,12.60
2017-10-26T07:08:01.188Z,12.50
2017-10-26T07:10:27.745Z,12.50
2017-10-26T07:12:54.937Z,12.50
2017-10-26T07:15:21.474Z,12.50
2017-10-26T07:17:48.851Z,12.60
2017-10-26T07:20:15.308Z,12.60
2017-10-26T07:22:41.864Z,12.50
2017-10-26T07:25:09.142Z,12.60
2017-10-26T07:27:36.340Z,12.60
2017-10-26T07:30:02.832Z,12.60
2017-10-26T07:32:29.308Z,12.60
2017-10-26T07:34:56.509Z,12.60
2017-10-26T07:37:23.590Z,12.60
2017-10-26T07:39:50.228Z,12.60
2017-10-26T07:42:16.791Z,12.70
2017-10-26T07:44:43.346Z,12.90
2017-10-26T07:47:10.724Z,13.10
2017-10-26T07:49:37.801Z,13.10
2017-10-26T07:52:04.321Z,13.20
2017-10-26T07:54:30.915Z,13.20
2017-10-26T07:56:57.468Z,13.20
2017-10-26T07:59:24.026Z,13.20
2017-10-26T08:01:50.585Z,13.10
2017-10-26T08:04:17.143Z,13.20
2017-10-26T08:06:43.619Z,13.20
2017-10-26T08:09:10.157Z,13.40
2017-10-26T08:11:37.345Z,14.30
2017-10-26T08:14:03.865Z,14.30
2017-10-26T08:16:30.432Z,14.80
2017-10-26T08:18:57.632Z,15.30
2017-10-26T08:21:24.176Z,15.30
2017-10-26T08:23:50.632Z,15.20
2017-10-26T08:26:17.880Z,15.00
2017-10-26T08:28:46.548Z,15.00
2017-10-26T08:31:13.172Z,15.00
2017-10-26T08:33:40.366Z,15.40
2017-10-26T08:36:06.903Z,15.40
2017-10-26T08:38:34.178Z,15.20
2017-10-26T08:41:01.451Z,15.30
2017-10-26T08:43:27.940Z,15.30
2017-10-26T08:45:54.364Z,15.20
2017-10-26T08:48:21.638Z,15.10
2017-10-26T08:50:48.908Z,15.00
2017-10-26T08:53:16.289Z,14.90
2017-10-26T08:55:43.665Z,15.00
2017-10-26T08:58:11.043Z,15.30
2017-10-26T09:00:38.729Z,15.40
2017-10-26T09:03:06.048Z,16.00
2017-10-26T09:05:34.110Z,16.30
2017-10-26T09:08:00.755Z,16.20
2017-10-26T09:10:28.077Z,16.60
2017-10-26T09:12:54.586Z,16.60
2017-10-26T09:15:21.878Z,17.00
2017-10-26T09:17:48.434Z,16.90
2017-10-26T09:20:14.931Z,17.10
2017-10-26T09:22:41.536Z,17.20
2017-10-26T09:25:08.846Z,17.30
2017-10-26T09:27:35.472Z,17.30
2017-10-26T09:30:02.850Z,17.10
2017-10-26T09:32:29.396Z,17.10
2017-10-26T09:34:56.787Z,16.70
2017-10-26T09:37:23.343Z,16.60
2017-10-26T09:39:50.720Z,16.30
2017-10-26T09:42:18.096Z,16.10
2017-10-26T09:44:44.632Z,16.10
2017-10-26T09:47:11.214Z,15.90
2017-10-26T09:49:37.873Z,15.80
2017-10-26T09:52:05.183Z,15.60
2017-10-26T09:54:31.727Z,15.50
2017-10-26T09:56:58.269Z,15.50
2017-10-26T09:59:24.825Z,15.50
2017-10-26T10:01:52.113Z,15.60
2017-10-26T10:04:18.654Z,15.60
2017-10-26T10:06:45.884Z,15.60
2017-10-26T10:09:13.515Z,15.60
2017-10-26T10:11:40.160Z,15.60
2017-10-26T10:14:07.460Z,15.30
2017-10-26T10:16:34.112Z,15.20
2017-10-26T10:19:00.872Z,15.10
2017-10-26T10:21:27.428Z,14.90
2017-10-26T10:23:54.658Z,14.90
2017-10-26T10:26:21.262Z,14.90
2017-10-26T10:28:48.552Z,14.90
2017-10-26T10:31:15.123Z,14.80
2017-10-26T10:33:41.693Z,14.90
2017-10-26T10:36:08.281Z,15.00
2017-10-26T10:38:34.867Z,15.10
2017-10-26T10:41:02.555Z,15.20
2017-10-26T10:43:29.882Z,15.30
2017-10-26T10:45:56.445Z,15.30
2017-10-26T10:48:24.073Z,15.40
2017-10-26T10:50:50.733Z,15.50
2017-10-26T10:53:18.009Z,15.60
2017-10-26T10:55:44.669Z,15.60
2017-10-26T10:58:11.329Z,15.80
2017-10-26T11:00:37.990Z,16.00
2017-10-26T11:03:04.533Z,16.10
2017-10-26T11:05:31.065Z,16.00
2017-10-26T11:07:57.665Z,15.90
2017-10-26T11:10:25.052Z,15.80
2017-10-26T11:12:51.600Z,15.80
2017-10-26T11:15:18.266Z,15.80
2017-10-26T11:17:44.868Z,15.90
2017-10-26T11:20:11.480Z,15.90
2017-10-26T11:22:38.855Z,15.80
2017-10-26T11:25:06.118Z,15.70
2017-10-26T11:27:33.407Z,15.60
2017-10-26T11:30:00.813Z,15.60
2017-10-26T11:32:27.443Z,15.60
2017-10-26T11:34:54.103Z,15.50
2017-10-26T11:37:21.377Z,15.50
2017-10-26T11:39:47.931Z,15.40
2017-10-26T11:42:15.312Z,15.30
2017-10-26T11:44:42.586Z,15.30
2017-10-26T11:47:09.120Z,15.30
2017-10-26T11:49:35.706Z,15.30
2017-10-26T11:52:03.019Z,15.20
2017-10-26T11:54:29.655Z,15.20
2017-10-26T11:56:56.214Z,15.20
2017-10-26T11:59:22.861Z,15.10
2017-10-26T12:01:49.411Z,15.00
2017-10-26T12:04:15.934Z,15.00
2017-10-26T12:06:42.537Z,15.00
2017-10-26T12:09:09.127Z,15.00
2017-10-26T12:11:35.650Z,15.00
2017-10-26T12:14:02.930Z,15.00
2017-10-26T12:16:29.586Z,15.00
2017-10-26T12:18:56.248Z,15.00
2017-10-26T12:21:23.528Z,15.00
2017-10-26T12:23:50.124Z,15.00
2017-10-26T12:26:16.742Z,15.00
2017-10-26T12:28:44.122Z,14.90
2017-10-26T12:31:10.879Z,14.90
2017-10-26T12:33:38.258Z,14.90
2017-10-26T12:36:05.735Z,14.90
2017-10-26T12:38:33.418Z,14.90
2017-10-26T12:41:00.801Z,15.00
2017-10-26T12:43:27.378Z,15.00
2017-10-26T12:45:54.017Z,15.00
2017-10-26T12:48:21.154Z,15.10
2017-10-26T12:50:48.455Z,15.10
2017-10-26T12:53:15.720Z,15.10
2017-10-26T12:55:43.011Z,15.00
2017-10-26T12:58:10.343Z,15.00
2017-10-26T13:00:37.534Z,15.00
2017-10-26T13:03:04.072Z,15.00
2017-10-26T13:05:30.609Z,15.00
2017-10-26T13:07:57.144Z,15.00
2017-10-26T13:10:23.794Z,14.90
2017-10-26T13:12:50.375Z,14.80
2017-10-26T13:15:17.012Z,14.80
2017-10-26T13:17:44.493Z,14.70
2017-10-26T13:20:11.120Z,14.60
2017-10-26T13:22:37.610Z,14.60
2017-10-26T13:25:04.884Z,14.50
2017-10-26T13:27:31.385Z,14.50
2017-10-26T13:29:57.829Z,14.40
2017-10-26T13:32:24.563Z,14.40
2017-10-26T13:34:51.107Z,14.40
2017-10-26T13:37:18.373Z,14.40
2017-10-26T13:39:45.603Z,14.40
2017-10-26T13:42:12.224Z,14.40
2017-10-26T13:44:39.439Z,14.40
2017-10-26T13:47:05.904Z,14.30
2017-10-26T13:49:32.513Z,14.30
2017-10-26T13:51:59.071Z,14.30
2017-10-26T13:54:26.283Z,14.30
2017-10-26T13:56:52.709Z,14.30
2017-10-26T13:59:19.260Z,14.30
2017-10-26T14:01:45.797Z,14.30
2017-10-26T14:04:12.318Z,14.20
2017-10-26T14:06:38.934Z,14.30
2017-10-26T14:09:05.478Z,14.30
2017-10-26T14:11:32.773Z,14.30
2017-10-26T14:13:59.325Z,14.30
2017-10-26T14:16:25.884Z,14.30
2017-10-26T14:18:53.772Z,14.30
2017-10-26T14:21:21.250Z,14.30
2017-10-26T14:23:48.525Z,14.30
2017-10-26T14:26:15.191Z,14.20
2017-10-26T14:28:41.948Z,14.30
2017-10-26T14:31:09.224Z,14.20
2017-10-26T14:33:35.782Z,14.20
2017-10-26T14:36:03.494Z,14.20
2017-10-26T14:38:30.024Z,14.20
2017-10-26T14:40:58.248Z,14.20
2017-10-26T14:43:24.793Z,14.10
2017-10-26T14:45:51.440Z,14.10
2017-10-26T14:48:18.714Z,14.10
2017-10-26T14:50:45.905Z,14.10
2017-10-26T14:53:12.443Z,14.10
2017-10-26T14:55:39.539Z,14.10
2017-10-26T14:58:06.046Z,14.00
2017-10-26T15:00:32.559Z,14.00
2017-10-26T15:02:59.163Z,14.00
2017-10-26T15:05:25.647Z,13.90
2017-10-26T15:07:53.227Z,13.80
2017-10-26T15:10:19.812Z,13.80
2017-10-26T15:12:46.445Z,13.80
2017-10-26T15:15:13.727Z,13.70
2017-10-26T15:17:40.388Z,13.70
2017-10-26T15:20:07.040Z,13.70
2017-10-26T15:22:35.340Z,13.60
2017-10-26T15:25:02.001Z,13.60
2017-10-26T15:27:29.274Z,13.50
2017-10-26T15:29:56.554Z,13.50
2017-10-26T15:32:23.620Z,13.50
2017-10-26T15:34:50.896Z,13.30
2017-10-26T15:37:17.553Z,13.30
2017-10-26T15:39:44.215Z,13.30
2017-10-26T15:42:11.181Z,13.20
2017-10-26T15:44:38.455Z,13.10
2017-10-26T15:47:05.592Z,13.10
2017-10-26T15:49:32.901Z,13.00
2017-10-26T15:51:59.407Z,13.10
2017-10-26T15:54:26.121Z,13.00
2017-10-26T15:56:52.701Z,13.00
2017-10-26T15:59:19.241Z,13.00
2017-10-26T16:01:45.812Z,13.00
2017-10-26T16:04:12.560Z,13.00
2017-10-26T16:06:39.052Z,12.90
2017-10-26T16:09:05.677Z,12.90
2017-10-26T16:11:32.236Z,12.90
2017-10-26T16:13:58.722Z,12.80
2017-10-26T16:16:25.354Z,12.80
2017-10-26T16:18:52.114Z,12.70
2017-10-26T16:21:18.665Z,12.60
2017-10-26T16:23:46.785Z,12.50
2017-10-26T16:26:13.427Z,12.50
2017-10-26T16:28:39.986Z,12.40
2017-10-26T16:31:06.543Z,12.40
2017-10-26T16:33:34.123Z,12.40
2017-10-26T16:36:01.347Z,12.40
2017-10-26T16:38:30.157Z,12.30
2017-10-26T16:40:56.766Z,12.30
2017-10-26T16:43:24.143Z,12.20
2017-10-26T16:45:50.700Z,12.20
2017-10-26T16:48:17.977Z,12.10
2017-10-26T16:50:44.532Z,12.10
2017-10-26T16:53:11.771Z,11.90
2017-10-26T16:55:38.572Z,11.90
2017-10-26T16:58:06.015Z,11.90
2017-10-26T17:00:33.641Z,11.80
2017-10-26T17:03:00.294Z,11.70
2017-10-26T17:05:26.961Z,11.70
2017-10-26T17:07:54.840Z,11.60
2017-10-26T17:10:22.549Z,11.50
2017-10-26T17:12:49.156Z,11.50
2017-10-26T17:15:16.374Z,11.40
2017-10-26T17:17:43.224Z,11.40
2017-10-26T17:20:09.755Z,11.30
2017-10-26T17:22:36.747Z,11.30
2017-10-26T17:25:03.409Z,11.30
2017-10-26T17:27:30.683Z,11.40
2017-10-26T17:29:57.549Z,11.40
2017-10-26T17:32:24.413Z,11.40
2017-10-26T17:34:50.975Z,11.30
2017-10-26T17:37:18.554Z,11.30
2017-10-26T17:39:45.218Z,11.20
2017-10-26T17:42:11.877Z,11.20
2017-10-26T17:44:38.440Z,11.20
2017-10-26T17:47:04.992Z,11.10
2017-10-26T17:49:31.550Z,11.10
2017-10-26T17:51:58.746Z,11.10
2017-10-26T17:54:25.182Z,11.10
2017-10-26T17:56:51.737Z,11.10
2017-10-26T17:59:18.398Z,11.10
2017-10-26T18:01:44.957Z,11.20
2017-10-26T18:04:12.918Z,11.20
2017-10-26T18:06:40.224Z,11.20
2017-10-26T18:09:07.701Z,11.20
2017-10-26T18:11:34.465Z,11.20
2017-10-26T18:14:01.228Z,11.20
2017-10-26T18:16:27.890Z,11.20
2017-10-26T18:18:56.388Z,11.20
2017-10-26T18:21:23.263Z,11.20
2017-10-26T18:23:50.120Z,11.30
2017-10-26T18:26:18.007Z,11.30
2017-10-26T18:28:44.873Z,11.30
2017-10-26T18:31:12.147Z,11.40
2017-10-26T18:33:39.322Z,11.40
2017-10-26T18:36:06.697Z,11.40
2017-10-26T18:38:33.879Z,11.40
2017-10-26T18:41:02.565Z,11.50
2017-10-26T18:43:30.769Z,11.50
2017-10-26T18:45:58.353Z,11.50
2017-10-26T18:48:24.828Z,11.50
2017-10-26T18:50:58.504Z,11.50
2017-10-26T18:53:25.500Z,11.60
2017-10-26T18:55:52.157Z,11.60
2017-10-26T18:58:22.408Z,11.70
2017-10-26T19:00:50.386Z,11.70
2017-10-26T19:03:17.046Z,11.70
2017-10-26T19:05:44.526Z,11.60
2017-10-26T19:08:11.183Z,11.60
2017-10-26T19:10:38.665Z,11.70
2017-10-26T19:13:06.455Z,11.60
2017-10-26T19:15:33.727Z,11.60
2017-10-26T19:18:01.460Z,11.60
2017-10-26T19:20:28.601Z,11.60
2017-10-26T19:22:56.678Z,11.60
2017-10-26T19:25:23.640Z,11.60
2017-10-26T19:27:50.303Z,11.60
2017-10-26T19:30:17.063Z,11.50
2017-10-26T19:32:44.032Z,11.50
2017-10-26T19:35:10.895Z,11.50
2017-10-26T19:37:37.555Z,11.50
2017-10-26T19:40:04.527Z,11.50
2017-10-26T19:42:32.209Z,11.50
2017-10-26T19:44:59.278Z,11.50
2017-10-26T19:47:26.143Z,11.60
2017-10-26T19:49:54.339Z,11.60
2017-10-26T19:52:20.999Z,11.60
2017-10-26T19:54:48.272Z,11.60
2017-10-26T19:57:15.654Z,11.60
2017-10-26T19:59:43.028Z,11.60
2017-10-26T20:02:11.594Z,11.60
2017-10-26T20:04:38.291Z,11.60
2017-10-26T20:07:05.773Z,11.60
2017-10-26T20:09:33.798Z,11.60
2017-10-26T20:12:02.058Z,11.60
2017-10-26T20:14:29.537Z,11.60
2017-10-26T20:16:56.283Z,11.60
2017-10-26T20:19:23.683Z,11.60
2017-10-26T20:21:50.354Z,11.60
2017-10-26T20:24:16.895Z,11.60
2017-10-26T20:26:43.555Z,11.60
2017-10-26T20:29:10.109Z,11.60
2017-10-26T20:31:37.603Z,11.70
2017-10-26T20:34:04.150Z,11.60
2017-10-26T20:36:31.541Z,11.70
2017-10-26T20:38:58.095Z,11.70
2017-10-26T20:41:25.544Z,11.70
2017-10-26T20:43:52.943Z,11.70
2017-10-26T20:46:20.217Z,11.70
2017-10-26T20:48:46.778Z,11.70
2017-10-26T20:51:19.472Z,11.70
2017-10-26T20:53:52.164Z,11.70
2017-10-26T20:56:25.780Z,11.70
2017-10-26T20:58:59.200Z,11.60
2017-10-26T21:01:31.862Z,11.60
2017-10-26T21:04:04.582Z,11.60
2017-10-26T21:06:32.062Z,11.60
2017-10-26T21:09:04.549Z,11.60
2017-10-26T21:11:36.964Z,11.60
2017-10-26T21:14:20.286Z,11.70
2017-10-26T21:16:46.709Z,11.70
2017-10-26T21:19:13.891Z,11.70
2017-10-26T21:21:41.085Z,11.70
2017-10-26T21:24:07.543Z,11.60
2017-10-26T21:26:34.034Z,11.70
2017-10-26T21:29:01.079Z,11.60
2017-10-26T21:31:27.515Z,11.60
2017-10-26T21:33:53.959Z,11.60
2017-10-26T21:36:21.238Z,11.50
2017-10-26T21:38:47.800Z,11.50
2017-10-26T21:41:14.280Z,11.50
2017-10-26T21:43:40.741Z,11.50
2017-10-26T21:46:07.188Z,11.50
2017-10-26T21:48:33.620Z,11.50
2017-10-26T21:51:00.780Z,11.50
2017-10-26T21:53:27.966Z,11.50
2017-10-26T21:55:54.440Z,11.50
2017-10-26T21:58:20.888Z,11.50
2017-10-26T22:00:47.351Z,11.50
2017-10-26T22:03:13.896Z,11.50
2017-10-26T22:05:40.374Z,11.50
2017-10-26T22:08:07.741Z,11.60
2017-10-26T22:10:34.788Z,11.60
2017-10-26T22:13:02.102Z,11.70
2017-10-26T22:15:28.541Z,11.60
2017-10-26T22:17:54.957Z,11.70
2017-10-26T22:20:22.360Z,11.70
2017-10-26T22:22:48.917Z,11.70
2017-10-26T22:25:16.192Z,11.80
2017-10-26T22:27:42.676Z,11.70
2017-10-26T22:30:09.195Z,11.80
2017-10-26T22:32:36.407Z,11.80
2017-10-26T22:35:03.322Z,11.80
2017-10-26T22:37:29.906Z,11.80
2017-10-26T22:39:57.730Z,11.80
2017-10-26T22:42:24.230Z,11.80
2017-10-26T22:44:51.378Z,11.80
2017-10-26T22:47:17.814Z,11.80
2017-10-26T22:49:44.334Z,11.80
2017-10-26T22:52:11.266Z,11.80
2017-10-26T22:54:37.719Z,11.80
2017-10-26T22:57:04.187Z,11.80
2017-10-26T22:59:30.772Z,11.80
2017-10-26T23:01:58.045Z,11.80
2017-10-26T23:04:25.322Z,11.80
2017-10-26T23:06:52.523Z,11.80
2017-10-26T23:09:19.053Z,11.80
2017-10-26T23:11:45.535Z,11.80
2017-10-26T23:14:11.988Z,11.80
2017-10-26T23:16:39.158Z,11.80
2017-10-26T23:19:05.715Z,11.80
2017-10-26T23:21:32.252Z,11.80
2017-10-26T23:23:58.820Z,11.80
2017-10-26T23:26:25.267Z,11.80
2017-10-26T23:28:51.827Z,11.80
2017-10-26T23:31:19.102Z,11.80
2017-10-26T23:33:46.379Z,11.80
2017-10-26T23:36:12.933Z,11.80
2017-10-26T23:38:40.209Z,11.80
2017-10-26T23:41:07.482Z,11.80
2017-10-26T23:43:34.670Z,11.80
2017-10-26T23:46:02.054Z,11.80
2017-10-26T23:48:28.494Z,11.80
2017-10-26T23:50:56.990Z,11.80
2017-10-26T23:53:23.430Z,11.80
2017-10-26T23:55:51.174Z,11.80
2017-10-26T23:58:17.687Z,11.80
